createdAt,value
2024-02-08T00:01:22.546Z,11.40
2024-02-08T00:03:53.730Z,10.52
2024-02-08T00:06:21.037Z,8.57
2024-02-08T00:08:48.484Z,10.27
2024-02-08T00:11:16.054Z,9.60
2024-02-08T00:13:43.356Z,8.25
2024-02-08T00:16:12.862Z,8.48
2024-02-08T00:18:40.615Z,7.50
2024-02-08T00:21:10.735Z,8.63
2024-02-08T00:23:41.091Z,6.57
2024-02-08T00:26:08.729Z,7.25
2024-02-08T00:28:36.342Z,7.80
2024-02-08T00:31:07.970Z,7.60
2024-02-08T00:33:35.556Z,7.63
2024-02-08T00:36:03.617Z,7.63
2024-02-08T00:38:31.149Z,7.50
2024-02-08T00:40:58.567Z,7.10
2024-02-08T00:43:26.985Z,135.55
2024-02-08T00:45:55.738Z,70.15
2024-02-08T00:48:23.769Z,22.40
2024-02-08T00:50:51.323Z,11.98
2024-02-08T00:53:20.499Z,9.40
2024-02-08T00:55:48.029Z,7.47
2024-02-08T00:58:17.274Z,6.15
2024-02-08T01:00:45.318Z,7.50
2024-02-08T01:03:15.165Z,7.38
2024-02-08T01:05:43.702Z,7.20
2024-02-08T01:08:11.536Z,8.10
2024-02-08T01:10:39.099Z,7.30
2024-02-08T01:13:06.605Z,7.35
2024-02-08T01:15:34.639Z,7.00
2024-02-08T01:18:05.125Z,7.68
2024-02-08T01:20:33.512Z,7.15
2024-02-08T01:23:01.491Z,6.97
2024-02-08T01:25:28.821Z,7.20
2024-02-08T01:27:57.065Z,7.95
2024-02-08T01:30:26.113Z,6.97
2024-02-08T01:32:54.540Z,6.70
2024-02-08T01:35:27.823Z,7.03
2024-02-08T01:37:55.356Z,6.40
2024-02-08T01:40:24.062Z,6.10
2024-02-08T01:42:59.034Z,7.15
2024-02-08T01:45:39.205Z,6.65
2024-02-08T01:48:12.372Z,6.55
2024-02-08T01:50:43.952Z,6.88
2024-02-08T01:53:15.962Z,6.60
2024-02-08T01:55:51.992Z,5.90
2024-02-08T01:58:21.823Z,6.57
2024-02-08T02:00:52.244Z,6.70
2024-02-08T02:03:21.410Z,5.82
2024-02-08T02:05:49.100Z,6.80
2024-02-08T02:08:23.090Z,5.90
2024-02-08T02:11:26.060Z,6.10
2024-02-08T02:13:55.774Z,6.10
2024-02-08T02:16:24.955Z,5.88
2024-02-08T02:18:52.578Z,5.95
2024-02-08T02:21:22.176Z,7.82
2024-02-08T02:23:50.215Z,7.43
2024-02-08T02:26:20.263Z,8.18
2024-02-08T02:28:49.240Z,7.95
2024-02-08T02:31:18.240Z,8.05
2024-02-08T02:33:47.916Z,6.18
2024-02-08T02:36:16.055Z,7.07
2024-02-08T02:38:44.314Z,6.55
2024-02-08T02:41:12.085Z,6.68
2024-02-08T02:43:41.136Z,5.80
2024-02-08T02:46:08.947Z,5.82
2024-02-08T02:48:36.829Z,5.97
2024-02-08T02:51:04.971Z,6.18
2024-02-08T02:53:32.357Z,5.57
2024-02-08T02:56:00.464Z,6.53
2024-02-08T02:58:28.388Z,5.70
2024-02-08T03:01:06.634Z,5.57
2024-02-08T03:03:39.470Z,5.25
2024-02-08T03:06:17.151Z,5.53
2024-02-08T03:08:47.105Z,5.72
2024-02-08T03:11:15.507Z,6.22
2024-02-08T03:13:45.485Z,5.97
2024-02-08T03:16:16.483Z,6.38
2024-02-08T03:18:45.403Z,6.25
2024-02-08T03:21:19.834Z,6.20
2024-02-08T03:23:51.541Z,5.70
2024-02-08T03:26:21.633Z,5.72
2024-02-08T03:28:53.269Z,5.53
2024-02-08T03:31:20.933Z,5.88
2024-02-08T03:33:48.433Z,5.45
2024-02-08T03:36:16.031Z,6.40
2024-02-08T03:38:45.596Z,6.38
2024-02-08T03:41:13.733Z,5.60
2024-02-08T03:43:41.227Z,6.35
2024-02-08T03:46:09.536Z,6.85
2024-02-08T03:48:38.333Z,8.07
2024-02-08T03:51:06.129Z,8.50
2024-02-08T03:53:38.530Z,7.05
2024-02-08T03:56:08.004Z,6.80
2024-02-08T03:58:38.022Z,6.18
2024-02-08T04:01:10.410Z,5.68
2024-02-08T04:03:55.390Z,6.32
2024-02-08T04:06:43.498Z,6.00
2024-02-08T04:09:18.172Z,7.25
2024-02-08T04:12:04.257Z,5.68
2024-02-08T04:14:50.477Z,5.70
2024-02-08T04:17:36.194Z,6.72
2024-02-08T04:20:22.375Z,7.25
2024-02-08T04:23:08.317Z,6.60
2024-02-08T04:25:54.453Z,6.70
2024-02-08T04:28:40.281Z,6.18
2024-02-08T04:31:29.148Z,7.00
2024-02-08T04:34:16.274Z,6.57
2024-02-08T04:37:02.591Z,7.13
2024-02-08T04:39:48.474Z,8.18
2024-02-08T04:42:35.097Z,10.00
2024-02-08T04:45:21.365Z,9.82
2024-02-08T04:48:07.183Z,10.20
2024-02-08T04:50:52.922Z,9.73
2024-02-08T04:53:39.196Z,9.25
2024-02-08T04:56:12.802Z,8.63
2024-02-08T05:01:13.302Z,6.88
2024-02-08T05:03:45.275Z,7.00
2024-02-08T05:06:20.409Z,7.35
2024-02-08T05:08:49.225Z,5.88
2024-02-08T05:11:18.170Z,5.82
2024-02-08T05:13:53.227Z,6.50
2024-02-08T05:16:21.425Z,8.23
2024-02-08T05:18:50.372Z,6.93
2024-02-08T05:21:19.253Z,7.60
2024-02-08T05:23:49.394Z,8.40
2024-02-08T05:26:21.096Z,9.00
2024-02-08T05:28:49.963Z,9.25
2024-02-08T05:31:18.257Z,10.23
2024-02-08T05:33:47.296Z,10.02
2024-02-08T05:36:19.035Z,10.77
2024-02-08T05:38:47.702Z,10.43
2024-02-08T05:41:18.907Z,10.80
2024-02-08T05:43:47.327Z,11.10
2024-02-08T05:46:31.849Z,10.85
2024-02-08T05:49:06.542Z,11.20
2024-02-08T05:51:36.019Z,10.65
2024-02-08T05:54:03.964Z,13.10
2024-02-08T05:56:32.128Z,16.63
2024-02-08T05:59:07.097Z,18.42
2024-02-08T06:01:45.975Z,16.65
2024-02-08T06:04:14.098Z,29.45
2024-02-08T06:07:08.613Z,25.50
2024-02-08T06:09:47.227Z,15.65
2024-02-08T06:12:25.728Z,13.60
2024-02-08T06:15:00.427Z,13.32
2024-02-08T06:17:33.958Z,12.85
2024-02-08T06:20:02.061Z,13.00
2024-02-08T06:22:30.795Z,10.95
2024-02-08T06:25:10.343Z,11.35
2024-02-08T06:27:38.675Z,9.85
2024-02-08T06:30:10.854Z,12.05
2024-02-08T06:32:47.592Z,10.80
2024-02-08T06:35:21.364Z,9.60
2024-02-08T06:38:04.193Z,10.07
2024-02-08T06:40:50.714Z,9.88
2024-02-08T06:43:21.618Z,9.25
2024-02-08T06:45:50.018Z,11.75
2024-02-08T06:48:18.317Z,9.88
2024-02-08T06:51:04.419Z,25.58
2024-02-08T06:54:10.308Z,30.85
2024-02-08T06:56:58.724Z,18.40
2024-02-08T06:59:44.489Z,13.35
2024-02-08T07:02:30.414Z,12.63
2024-02-08T07:05:16.326Z,13.90
2024-02-08T07:08:02.194Z,13.80
2024-02-08T07:10:48.168Z,11.30
2024-02-08T07:13:34.036Z,12.02
2024-02-08T07:16:19.774Z,10.38
2024-02-08T07:19:07.803Z,10.10
2024-02-08T07:21:56.518Z,9.45
2024-02-08T07:24:43.197Z,8.02
2024-02-08T07:27:29.172Z,7.50
2024-02-08T07:30:16.029Z,7.00
2024-02-08T07:33:02.053Z,7.07
2024-02-08T07:35:48.114Z,6.72
2024-02-08T07:38:16.155Z,7.53
2024-02-08T07:40:45.326Z,7.85
2024-02-08T07:43:16.372Z,7.72
2024-02-08T07:45:47.859Z,7.47
2024-02-08T07:48:37.278Z,6.75
2024-02-08T07:51:05.963Z,8.63
2024-02-08T07:53:37.142Z,7.80
2024-02-08T07:56:23.803Z,7.20
2024-02-08T07:58:51.219Z,6.70
2024-02-08T08:01:22.108Z,5.82
2024-02-08T08:03:58.463Z,6.35
2024-02-08T08:06:27.515Z,6.25
2024-02-08T08:09:02.733Z,5.47
2024-02-08T08:11:32.660Z,6.13
2024-02-08T08:14:00.517Z,7.28
2024-02-08T08:16:32.074Z,7.38
2024-02-08T08:19:10.403Z,5.78
2024-02-08T08:21:59.532Z,5.53
2024-02-08T08:24:28.388Z,5.93
2024-02-08T08:27:27.942Z,6.40
2024-02-08T08:30:00.198Z,5.38
2024-02-08T08:32:34.179Z,6.00
2024-02-08T08:35:25.706Z,5.35
2024-02-08T08:38:20.223Z,4.88
2024-02-08T08:41:13.125Z,4.22
2024-02-08T08:43:48.382Z,5.20
2024-02-08T08:46:20.385Z,4.97
2024-02-08T08:48:53.036Z,4.90
2024-02-08T08:51:32.435Z,4.70
2024-02-08T08:54:15.798Z,4.60
2024-02-08T08:56:45.924Z,4.70
2024-02-08T08:59:13.730Z,4.93
2024-02-08T09:01:42.444Z,6.13
2024-02-08T09:04:12.163Z,4.32
2024-02-08T09:06:43.548Z,5.75
2024-02-08T09:09:29.968Z,5.28
2024-02-08T09:12:00.226Z,4.80
2024-02-08T09:14:34.030Z,4.80
2024-02-08T09:17:24.017Z,4.70
2024-02-08T09:19:52.462Z,4.32
2024-02-08T09:22:21.284Z,5.40
2024-02-08T09:24:50.443Z,4.32
2024-02-08T09:27:20.523Z,4.15
2024-02-08T09:30:10.147Z,4.07
2024-02-08T09:32:47.061Z,4.03
2024-02-08T09:35:15.430Z,3.97
2024-02-08T09:37:47.317Z,4.07
2024-02-08T09:40:31.772Z,3.70
2024-02-08T09:43:02.248Z,4.22
2024-02-08T09:45:35.885Z,4.55
2024-02-08T09:48:12.696Z,4.15
2024-02-08T09:50:49.301Z,4.20
2024-02-08T09:53:31.980Z,3.80
2024-02-08T09:56:17.117Z,4.60
2024-02-08T09:59:05.214Z,4.55
2024-02-08T10:01:45.843Z,3.85
2024-02-08T10:04:18.822Z,4.20
2024-02-08T10:06:48.043Z,4.50
2024-02-08T10:09:35.048Z,4.13
2024-02-08T10:12:09.996Z,3.60
2024-02-08T10:14:38.386Z,4.05
2024-02-08T10:17:19.854Z,3.50
2024-02-08T10:20:20.645Z,3.60
2024-02-08T10:22:55.685Z,3.25
2024-02-08T10:25:47.338Z,3.25
2024-02-08T10:28:26.051Z,3.47
2024-02-08T10:31:14.252Z,2.80
2024-02-08T10:33:50.287Z,3.22
2024-02-08T10:36:23.161Z,2.95
2024-02-08T10:38:56.226Z,3.55
2024-02-08T10:41:30.475Z,3.38
2024-02-08T10:44:00.426Z,4.22
2024-02-08T10:46:33.818Z,4.28
2024-02-08T10:49:03.354Z,3.30
2024-02-08T10:51:33.347Z,3.42
2024-02-08T10:54:07.210Z,3.70
2024-02-08T10:56:42.658Z,3.20
2024-02-08T10:59:15.274Z,3.50
2024-02-08T11:01:52.252Z,4.30
2024-02-08T11:04:30.828Z,3.45
2024-02-08T11:07:18.385Z,4.30
2024-02-08T11:09:47.161Z,3.17
2024-02-08T11:12:23.272Z,3.22
2024-02-08T11:14:58.366Z,4.05
2024-02-08T11:17:32.273Z,3.97
2024-02-08T11:20:00.862Z,4.20
2024-02-08T11:22:41.580Z,4.40
2024-02-08T11:25:21.249Z,3.70
2024-02-08T11:27:53.537Z,3.75
2024-02-08T11:30:36.377Z,4.10
2024-02-08T11:33:05.892Z,4.47
2024-02-08T11:35:36.463Z,3.55
2024-02-08T11:38:17.863Z,3.92
2024-02-08T11:40:47.468Z,3.85
2024-02-08T11:43:25.741Z,4.10
2024-02-08T11:45:58.327Z,4.10
2024-02-08T11:48:31.139Z,3.30
2024-02-08T11:51:00.497Z,3.93
2024-02-08T11:53:34.813Z,3.67
2024-02-08T11:56:10.297Z,3.70
2024-02-08T11:58:49.358Z,3.42
2024-02-08T12:01:19.507Z,3.65
2024-02-08T12:03:52.094Z,3.88
2024-02-08T12:06:20.286Z,4.15
2024-02-08T12:09:05.655Z,3.90
2024-02-08T12:11:54.232Z,4.65
2024-02-08T12:14:27.001Z,3.65
2024-02-08T12:16:59.361Z,4.53
2024-02-08T12:19:32.503Z,4.15
2024-02-08T12:22:05.969Z,3.42
2024-02-08T12:24:36.913Z,5.07
2024-02-08T12:27:17.446Z,4.18
2024-02-08T12:29:50.301Z,4.20
2024-02-08T12:32:19.442Z,4.82
2024-02-08T12:34:51.579Z,4.38
2024-02-08T12:37:24.820Z,4.55
2024-02-08T12:39:52.988Z,4.53
2024-02-08T12:42:25.180Z,4.88
2024-02-08T12:44:53.206Z,4.50
2024-02-08T12:47:21.035Z,4.43
2024-02-08T12:49:49.765Z,4.47
2024-02-08T12:52:18.540Z,4.25
2024-02-08T12:54:56.389Z,4.65
2024-02-08T12:57:25.546Z,4.18
2024-02-08T13:00:14.757Z,4.63
2024-02-08T13:02:43.802Z,4.40
2024-02-08T13:05:11.316Z,4.60
2024-02-08T13:07:39.545Z,4.35
2024-02-08T13:10:17.281Z,3.50
2024-02-08T13:12:46.692Z,4.43
2024-02-08T13:15:23.304Z,3.58
2024-02-08T13:17:52.725Z,3.80
2024-02-08T13:20:23.227Z,3.83
2024-02-08T13:22:53.970Z,5.13
2024-02-08T13:25:29.843Z,3.97
2024-02-08T13:28:01.294Z,4.30
2024-02-08T13:30:31.523Z,4.25
2024-02-08T13:32:59.675Z,4.20
2024-02-08T13:35:30.433Z,4.22
2024-02-08T13:37:59.728Z,3.55
2024-02-08T13:40:28.195Z,4.65
2024-02-08T13:42:58.274Z,4.60
2024-02-08T13:45:28.104Z,5.22
2024-02-08T13:47:59.725Z,9.68
2024-02-08T13:50:33.592Z,11.32
2024-02-08T13:53:04.664Z,7.72
2024-02-08T13:58:08.634Z,8.43
2024-02-08T14:00:37.275Z,9.48
2024-02-08T14:03:05.756Z,9.10
2024-02-08T14:05:40.629Z,9.82
2024-02-08T14:08:19.308Z,10.25
2024-02-08T14:10:47.427Z,8.95
2024-02-08T14:13:20.437Z,7.82
2024-02-08T14:15:50.138Z,8.50
2024-02-08T14:18:29.006Z,6.35
2024-02-08T14:21:01.988Z,6.35
2024-02-08T14:23:32.243Z,7.43
2024-02-08T14:26:10.316Z,7.18
2024-02-08T14:28:44.712Z,8.10
2024-02-08T14:31:12.566Z,10.63
2024-02-08T14:33:48.597Z,10.60
2024-02-08T14:36:20.135Z,17.88
2024-02-08T14:38:49.660Z,13.55
2024-02-08T14:41:35.987Z,10.63
2024-02-08T14:44:11.179Z,12.10
2024-02-08T14:46:42.195Z,12.50
2024-02-08T14:49:28.795Z,12.60
2024-02-08T14:52:16.926Z,11.65
2024-02-08T14:54:45.083Z,11.55
2024-02-08T14:57:21.367Z,11.65
2024-02-08T14:59:52.810Z,11.63
2024-02-08T15:02:24.751Z,13.40
2024-02-08T15:05:02.277Z,12.32
2024-02-08T15:07:50.305Z,11.77
2024-02-08T15:10:22.990Z,12.18
2024-02-08T15:12:58.922Z,12.47
2024-02-08T15:15:35.575Z,11.43
2024-02-08T15:18:16.563Z,12.38
2024-02-08T15:20:58.214Z,12.10
2024-02-08T15:23:33.573Z,13.63
2024-02-08T15:26:14.824Z,12.73
2024-02-08T15:28:44.068Z,16.52
2024-02-08T15:31:17.926Z,17.67
2024-02-08T15:34:04.627Z,17.60
2024-02-08T15:36:51.478Z,15.52
2024-02-08T15:39:28.621Z,15.30
2024-02-08T15:42:03.079Z,14.98
2024-02-08T15:44:37.301Z,17.08
2024-02-08T15:47:14.341Z,18.90
2024-02-08T15:49:45.827Z,23.83
2024-02-08T15:52:17.337Z,22.67
2024-02-08T15:54:46.939Z,24.67
2024-02-08T15:57:15.499Z,26.92
2024-02-08T15:59:47.354Z,39.45
2024-02-08T16:02:19.218Z,38.92
2024-02-08T16:04:52.521Z,28.40
2024-02-08T16:07:29.541Z,25.23
2024-02-08T16:10:00.474Z,21.17
2024-02-08T16:12:32.810Z,18.15
2024-02-08T16:15:09.027Z,23.67
2024-02-08T16:17:39.265Z,33.03
2024-02-08T16:20:18.809Z,27.85
2024-02-08T16:23:06.136Z,29.67
2024-02-08T16:25:46.099Z,32.38
2024-02-08T16:28:20.514Z,31.48
2024-02-08T16:30:59.742Z,34.50
2024-02-08T16:33:49.953Z,35.85
2024-02-08T16:36:29.349Z,45.60
2024-02-08T16:39:09.279Z,38.85
2024-02-08T16:41:50.209Z,37.00
2024-02-08T16:44:23.910Z,34.08
2024-02-08T16:46:56.485Z,34.50
2024-02-08T16:49:33.070Z,31.45
2024-02-08T16:52:06.318Z,30.17
2024-02-08T16:54:44.066Z,29.00
2024-02-08T16:57:19.267Z,31.10
2024-02-08T16:59:50.283Z,158.15
2024-02-08T17:02:27.227Z,188.93
2024-02-08T17:05:11.811Z,53.35
2024-02-08T17:07:45.726Z,35.65
2024-02-08T17:10:35.518Z,31.83
2024-02-08T17:13:17.259Z,31.48
2024-02-08T17:16:01.828Z,31.98
2024-02-08T17:18:39.106Z,33.60
2024-02-08T17:21:08.779Z,35.63
2024-02-08T17:23:44.596Z,40.55
2024-02-08T17:26:28.339Z,43.17
2024-02-08T17:29:15.770Z,42.22
2024-02-08T17:31:44.261Z,44.72
2024-02-08T17:34:17.220Z,51.25
2024-02-08T17:36:46.498Z,56.28
2024-02-08T17:39:38.399Z,42.67
2024-02-08T17:42:09.782Z,51.55
2024-02-08T17:44:42.618Z,36.80
2024-02-08T17:47:12.304Z,35.80
2024-02-08T17:49:40.807Z,40.67
2024-02-08T17:52:09.720Z,44.60
2024-02-08T17:54:46.806Z,36.53
2024-02-08T17:57:24.305Z,31.83
2024-02-08T18:00:01.089Z,24.60
2024-02-08T18:02:37.836Z,22.05
2024-02-08T18:05:10.554Z,21.90
2024-02-08T18:07:38.588Z,23.63
2024-02-08T18:10:19.069Z,22.27
2024-02-08T18:12:53.685Z,24.33
2024-02-08T18:15:27.413Z,23.67
2024-02-08T18:17:58.259Z,21.60
2024-02-08T18:20:31.883Z,21.80
2024-02-08T18:23:04.431Z,22.52
2024-02-08T18:25:32.602Z,23.83
2024-02-08T18:28:02.224Z,101.05
2024-02-08T18:30:36.528Z,36.65
2024-02-08T18:33:06.850Z,25.83
2024-02-08T18:35:36.015Z,24.63
2024-02-08T18:38:09.827Z,25.30
2024-02-08T18:40:40.384Z,24.30
2024-02-08T18:43:08.391Z,24.30
2024-02-08T18:45:39.137Z,24.25
2024-02-08T18:48:12.738Z,23.88
2024-02-08T18:50:44.583Z,33.60
2024-02-08T18:53:14.306Z,48.38
2024-02-08T18:55:52.740Z,60.53
2024-02-08T18:58:23.303Z,52.03
2024-02-08T19:00:56.606Z,50.53
2024-02-08T19:03:29.063Z,52.08
2024-02-08T19:06:01.615Z,54.78
2024-02-08T19:08:37.807Z,67.35
2024-02-08T19:11:05.640Z,53.28
2024-02-08T19:13:37.362Z,54.72
2024-02-08T19:16:13.851Z,56.78
2024-02-08T19:18:45.941Z,64.32
2024-02-08T19:21:27.815Z,54.58
2024-02-08T19:23:57.090Z,44.53
2024-02-08T19:26:26.797Z,35.92
2024-02-08T19:28:56.526Z,39.20
2024-02-08T19:31:38.853Z,34.22
2024-02-08T19:34:10.040Z,28.48
2024-02-08T19:36:38.789Z,21.52
2024-02-08T19:39:33.040Z,24.20
2024-02-08T19:42:03.493Z,41.80
2024-02-08T19:44:37.203Z,163.15
2024-02-08T19:47:15.537Z,148.77
2024-02-08T19:49:43.592Z,34.25
2024-02-08T19:52:16.903Z,29.70
2024-02-08T19:54:51.635Z,29.23
2024-02-08T19:57:30.649Z,26.10
2024-02-08T19:59:58.546Z,29.92
2024-02-08T20:02:29.513Z,27.77
2024-02-08T20:05:01.651Z,33.15
2024-02-08T20:07:41.924Z,38.67
2024-02-08T20:10:16.506Z,35.58
2024-02-08T20:12:47.356Z,39.10
2024-02-08T20:15:20.875Z,36.40
2024-02-08T20:17:53.651Z,32.63
2024-02-08T20:20:23.533Z,33.65
2024-02-08T20:22:55.775Z,33.05
2024-02-08T20:25:29.139Z,36.38
2024-02-08T20:28:01.228Z,37.53
2024-02-08T20:30:30.058Z,42.50
2024-02-08T20:33:03.040Z,43.42
2024-02-08T20:35:33.712Z,46.80
2024-02-08T20:38:01.612Z,44.50
2024-02-08T20:40:29.926Z,43.47
2024-02-08T20:43:00.790Z,43.63
2024-02-08T20:45:28.836Z,43.20
2024-02-08T20:47:57.572Z,41.38
2024-02-08T20:50:26.475Z,43.10
2024-02-08T20:52:56.052Z,43.90
2024-02-08T20:55:36.902Z,44.53
2024-02-08T20:58:12.394Z,44.95
2024-02-08T21:00:44.329Z,45.35
2024-02-08T21:03:15.033Z,44.97
2024-02-08T21:05:43.858Z,48.05
2024-02-08T21:08:12.857Z,50.70
2024-02-08T21:11:00.342Z,44.03
2024-02-08T21:13:33.703Z,38.60
2024-02-08T21:16:01.764Z,39.75
2024-02-08T21:18:29.880Z,40.03
2024-02-08T21:20:57.870Z,39.70
2024-02-08T21:23:27.749Z,40.33
2024-02-08T21:26:02.262Z,41.40
2024-02-08T21:28:31.319Z,40.33
2024-02-08T21:30:59.760Z,37.85
2024-02-08T21:33:33.656Z,35.35
2024-02-08T21:36:05.522Z,38.33
2024-02-08T21:38:37.273Z,38.13
2024-02-08T21:41:07.550Z,38.40
2024-02-08T21:43:40.570Z,39.33
2024-02-08T21:46:13.119Z,38.72
2024-02-08T21:48:42.725Z,38.92
2024-02-08T21:51:16.123Z,41.45
2024-02-08T21:53:46.755Z,42.53
2024-02-08T21:56:18.957Z,50.13
2024-02-08T21:58:49.725Z,53.60
2024-02-08T22:01:36.373Z,58.05
2024-02-08T22:04:10.747Z,53.38
2024-02-08T22:06:41.411Z,52.65
2024-02-08T22:09:12.925Z,50.63
2024-02-08T22:11:50.725Z,45.05
2024-02-08T22:14:21.437Z,38.17
2024-02-08T22:16:50.611Z,25.42
2024-02-08T22:19:22.664Z,21.73
2024-02-08T22:21:51.569Z,20.63
2024-02-08T22:24:20.986Z,20.48
2024-02-08T22:26:53.588Z,18.75
2024-02-08T22:29:22.956Z,14.23
2024-02-08T22:31:50.962Z,15.13
2024-02-08T22:34:20.381Z,13.07
2024-02-08T22:36:49.693Z,12.88
2024-02-08T22:39:18.424Z,13.07
2024-02-08T22:41:51.386Z,13.23
2024-02-08T22:44:20.238Z,11.83
2024-02-08T22:46:48.314Z,11.63
2024-02-08T22:49:15.927Z,12.00
2024-02-08T22:51:47.589Z,11.98
2024-02-08T22:54:15.990Z,11.63
2024-02-08T22:56:45.380Z,11.80
2024-02-08T22:59:13.673Z,11.73
2024-02-08T23:01:44.577Z,12.15
2024-02-08T23:04:15.464Z,13.27
2024-02-08T23:06:44.065Z,14.13
2024-02-08T23:09:17.430Z,13.40
2024-02-08T23:11:47.361Z,14.10
2024-02-08T23:14:20.652Z,13.82
2024-02-08T23:19:21.418Z,12.55
2024-02-08T23:21:55.356Z,13.07
2024-02-08T23:24:26.241Z,13.10
2024-02-08T23:26:54.354Z,13.95
2024-02-08T23:29:25.680Z,13.60
2024-02-08T23:31:53.747Z,13.32
2024-02-08T23:34:21.447Z,13.05
2024-02-08T23:36:55.892Z,13.30
2024-02-08T23:39:29.172Z,12.05
2024-02-08T23:41:59.686Z,12.82
2024-02-08T23:44:30.428Z,12.13
2024-02-08T23:46:57.984Z,11.50
2024-02-08T23:49:27.418Z,10.38
2024-02-08T23:51:57.062Z,8.88
2024-02-08T23:54:25.041Z,8.63
2024-02-08T23:56:56.579Z,8.90
2024-02-08T23:59:24.240Z,8.57
